Time;durP1;ratioP1;P1;durP2;ratioP2;P2;SDS_P1;SDS_P2;PMS_P1;PMS_P2;Temp;Humidity;BMP_temperature;BMP_pressure;BME280_temperature;BME280_humidity;BME280_pressure;Samples;Min_cycle;Max_cycle;Signal;HPM_P1;HPM_P2
2022/08/13 00:01:41;;;;;;;;;;;;;;;;;;4913910;28;20141;-58
2022/08/13 00:04:09;;;;;;;;;;;;;;;;;;4915385;28;19922;-58
2022/08/13 00:09:04;;;;;;;;;;;;;;;;;;4913370;28;20019;-57
2022/08/13 00:14:14;;;;;;;;;;;;;;;;;;4913449;28;20019;-57
2022/08/13 00:16:44;;;;;;;;;;;;;;;;;;4917972;28;19956;-57
2022/08/13 00:19:10;;;;;;;;;;;;;;;;;;4915605;28;20396;-57
2022/08/13 00:21:37;;;;;;;;;;;;;;;;;;4915133;28;19926;-57
2022/08/13 00:24:05;;;;;;;;;;;;;;;;;;4895579;28;19922;-57
2022/08/13 00:26:35;;;;;;;;;;;;;;;;;;4914071;28;19918;-58
2022/08/13 00:29:00;;;;;;;;;;;;;;;;;;4900081;28;19936;-58
2022/08/13 00:31:28;;;;;;;;;;;;;;;;;;4914009;28;19953;-58
2022/08/13 00:33:54;;;;;;;;;;;;;;;;;;4912922;28;19923;-57
2022/08/13 00:36:23;;;;;;;;;;;;;;;;;;4911293;28;19926;-58
2022/08/13 00:38:53;;;;;;;;;;;;;;;;;;4916107;28;19964;-58
2022/08/13 00:41:40;;;;;;;;;;;;;;;;;;4912150;28;19922;-59
2022/08/13 00:44:05;;;;;;;;;;;;;;;;;;4916478;28;19984;-57
2022/08/13 00:46:32;;;;;;;;;;;;;;;;;;4916656;28;19926;-59
2022/08/13 00:49:03;;;;;;;;;;;;;;;;;;4914280;28;20010;-57
2022/08/13 00:51:31;;;;;;;;;;;;;;;;;;4917500;28;19958;-58
2022/08/13 00:53:59;;;;;;;;;;;;;;;;;;4916612;28;20021;-58
2022/08/13 00:56:27;;;;;;;;;;;;;;;;;;4916594;28;19950;-58
2022/08/13 00:58:52;;;;;;;;;;;;;;;;;;4918434;28;20366;-58
2022/08/13 01:01:22;;;;;;;;;;;;;;;;;;4916001;28;19969;-57
2022/08/13 01:03:47;;;;;;;;;;;;;;;;;;4918530;28;20045;-58
2022/08/13 01:06:15;;;;;;;;;;;;;;;;;;4912851;28;20322;-58
2022/08/13 01:08:43;;;;;;;;;;;;;;;;;;4913899;28;19923;-58
2022/08/13 01:11:08;;;;;;;;;;;;;;;;;;4915328;28;20325;-58
2022/08/13 01:13:33;;;;;;;;;;;;;;;;;;4914203;28;19923;-58
2022/08/13 01:16:01;;;;;;;;;;;;;;;;;;4916779;28;20068;-57
2022/08/13 01:18:27;;;;;;;;;;;;;;;;;;4917372;28;19958;-57
2022/08/13 01:21:02;;;;;;;;;;;;;;;;;;4914996;28;19956;-57
2022/08/13 01:23:30;;;;;;;;;;;;;;;;;;4918868;28;19922;-58
2022/08/13 01:25:59;;;;;;;;;;;;;;;;;;4916882;28;19922;-58
2022/08/13 01:28:27;;;;;;;;;;;;;;;;;;4918205;28;19922;-58
2022/08/13 01:30:55;;;;;;;;;;;;;;;;;;4912189;28;20017;-58
2022/08/13 01:33:20;;;;;;;;;;;;;;;;;;4919247;28;19942;-58
2022/08/13 01:35:45;;;;;;;;;;;;;;;;;;4913013;28;19958;-57
2022/08/13 01:38:13;;;;;;;;;;;;;;;;;;4912743;28;19927;-58
2022/08/13 01:40:41;;;;;;;;;;;;;;;;;;4915167;28;20013;-57
2022/08/13 01:43:09;;;;;;;;;;;;;;;;;;4916734;28;19922;-58
2022/08/13 01:45:39;;;;;;;;;;;;;;;;;;4910147;28;20017;-57
2022/08/13 01:50:49;;;;;;;;;;;;;;;;;;4913688;28;19923;-58
2022/08/13 01:53:14;;;;;;;;;;;;;;;;;;4912635;28;20035;-57
2022/08/13 01:55:44;;;;;;;;;;;;;;;;;;4912252;28;20413;-57
2022/08/13 01:58:12;;;;;;;;;;;;;;;;;;4918433;28;20040;-57
2022/08/13 02:00:38;;;;;;;;;;;;;;;;;;4916298;28;20307;-56
2022/08/13 02:03:09;;;;;;;;;;;;;;;;;;4914644;28;19922;-58
2022/08/13 02:05:38;;;;;;;;;;;;;;;;;;4915655;28;20139;-58
2022/08/13 02:08:03;;;;;;;;;;;;;;;;;;4916774;28;20408;-58
2022/08/13 02:10:29;;;;;;;;;;;;;;;;;;4914528;28;19927;-58
2022/08/13 02:12:57;;;;;;;;;;;;;;;;;;4915998;28;19923;-58
2022/08/13 02:15:22;;;;;;;;;;;;;;;;;;4912068;28;19977;-58
2022/08/13 02:17:50;;;;;;;;;;;;;;;;;;4897209;28;20333;-59
2022/08/13 02:20:18;;;;;;;;;;;;;;;;;;4915062;28;19918;-56
2022/08/13 02:22:45;;;;;;;;;;;;;;;;;;4913580;28;20835;-57
2022/08/13 02:25:12;;;;;;;;;;;;;;;;;;4914869;28;20035;-57
2022/08/13 02:27:40;;;;;;;;;;;;;;;;;;4912904;28;20021;-58
2022/08/13 02:30:07;;;;;;;;;;;;;;;;;;4911296;28;20004;-56
2022/08/13 02:32:35;;;;;;;;;;;;;;;;;;4915707;28;20594;-56
2022/08/13 02:35:04;;;;;;;;;;;;;;;;;;4913795;28;19957;-57
2022/08/13 02:37:29;;;;;;;;;;;;;;;;;;4913850;28;19992;-57
2022/08/13 02:39:54;;;;;;;;;;;;;;;;;;4913108;28;20737;-57
2022/08/13 02:42:20;;;;;;;;;;;;;;;;;;4919510;28;19922;-55
2022/08/13 02:44:47;;;;;;;;;;;;;;;;;;4912249;28;19922;-57
2022/08/13 02:47:13;;;;;;;;;;;;;;;;;;4913331;28;19965;-57
2022/08/13 02:49:41;;;;;;;;;;;;;;;;;;4912849;28;19949;-58
2022/08/13 02:52:11;;;;;;;;;;;;;;;;;;4917518;28;19926;-57
2022/08/13 02:54:37;;;;;;;;;;;;;;;;;;4914329;28;19923;-57
2022/08/13 02:57:06;;;;;;;;;;;;;;;;;;4913241;28;20456;-57
2022/08/13 02:59:34;;;;;;;;;;;;;;;;;;4910546;28;20983;-57
2022/08/13 03:02:01;;;;;;;;;;;;;;;;;;4918685;28;19962;-58
2022/08/13 03:04:30;;;;;;;;;;;;;;;;;;4914935;28;19933;-58
2022/08/13 03:06:56;;;;;;;;;;;;;;;;;;4895015;28;19927;-57
2022/08/13 03:09:22;;;;;;;;;;;;;;;;;;4921129;28;19940;-57
2022/08/13 03:11:47;;;;;;;;;;;;;;;;;;4908752;28;21021;-56
2022/08/13 03:14:13;;;;;;;;;;;;;;;;;;4913429;28;20077;-57
2022/08/13 03:16:42;;;;;;;;;;;;;;;;;;4911859;28;19989;-58
2022/08/13 03:19:07;;;;;;;;;;;;;;;;;;4912627;28;20368;-58
2022/08/13 03:21:33;;;;;;;;;;;;;;;;;;4912229;28;19923;-57
2022/08/13 03:24:03;;;;;;;;;;;;;;;;;;4917412;28;21931;-57
2022/08/13 03:26:29;;;;;;;;;;;;;;;;;;4913553;28;19922;-57
2022/08/13 03:28:54;;;;;;;;;;;;;;;;;;4913955;28;19930;-58
2022/08/13 03:31:19;;;;;;;;;;;;;;;;;;4910469;28;19930;-57
2022/08/13 03:33:44;;;;;;;;;;;;;;;;;;4914232;28;20039;-56
2022/08/13 03:36:15;;;;;;;;;;;;;;;;;;4913898;28;20591;-57
2022/08/13 03:38:41;;;;;;;;;;;;;;;;;;4914087;28;19922;-57
2022/08/13 03:41:15;;;;;;;;;;;;;;;;;;4910164;28;19923;-57
2022/08/13 03:43:42;;;;;;;;;;;;;;;;;;4917519;28;21843;-58
2022/08/13 03:46:10;;;;;;;;;;;;;;;;;;4893865;28;19940;-57
2022/08/13 03:48:38;;;;;;;;;;;;;;;;;;4911529;28;20044;-57
2022/08/13 03:51:03;;;;;;;;;;;;;;;;;;4914082;28;20297;-57
2022/08/13 03:53:34;;;;;;;;;;;;;;;;;;4913924;28;19923;-58
2022/08/13 03:56:01;;;;;;;;;;;;;;;;;;4913102;28;19922;-58
2022/08/13 03:58:28;;;;;;;;;;;;;;;;;;4915663;28;19919;-57
2022/08/13 04:00:53;;;;;;;;;;;;;;;;;;4912697;28;19922;-57
2022/08/13 04:03:19;;;;;;;;;;;;;;;;;;4912801;28;20271;-61
2022/08/13 04:05:46;;;;;;;;;;;;;;;;;;4902037;28;19957;-57
2022/08/13 04:08:15;;;;;;;;;;;;;;;;;;4913224;28;20555;-57
2022/08/13 04:10:40;;;;;;;;;;;;;;;;;;4911948;28;19922;-58
2022/08/13 04:13:10;;;;;;;;;;;;;;;;;;4912464;28;19966;-58
2022/08/13 04:15:42;;;;;;;;;;;;;;;;;;4911878;28;20043;-57
2022/08/13 04:18:08;;;;;;;;;;;;;;;;;;4916776;28;20009;-57
2022/08/13 04:20:37;;;;;;;;;;;;;;;;;;4920855;28;20268;-56
2022/08/13 04:23:03;;;;;;;;;;;;;;;;;;4915019;28;19922;-57
2022/08/13 04:25:33;;;;;;;;;;;;;;;;;;4917129;28;19923;-58
2022/08/13 04:28:01;;;;;;;;;;;;;;;;;;4916714;28;19923;-58
2022/08/13 04:30:34;;;;;;;;;;;;;;;;;;4912063;28;19919;-58
2022/08/13 04:32:59;;;;;;;;;;;;;;;;;;4919853;28;19923;-57
2022/08/13 04:35:25;;;;;;;;;;;;;;;;;;4914097;28;19927;-57
2022/08/13 04:37:51;;;;;;;;;;;;;;;;;;4911148;28;20017;-58
2022/08/13 04:40:20;;;;;;;;;;;;;;;;;;4915709;28;20056;-58
2022/08/13 04:42:46;;;;;;;;;;;;;;;;;;4914276;28;21607;-55
2022/08/13 04:45:14;;;;;;;;;;;;;;;;;;4916138;28;19929;-57
2022/08/13 04:47:42;;;;;;;;;;;;;;;;;;4912505;28;20393;-57
2022/08/13 04:50:08;;;;;;;;;;;;;;;;;;4916057;28;20469;-58
2022/08/13 04:52:36;;;;;;;;;;;;;;;;;;4917822;28;19961;-57
2022/08/13 04:55:02;;;;;;;;;;;;;;;;;;4915050;28;19964;-57
2022/08/13 04:57:28;;;;;;;;;;;;;;;;;;4917455;28;19923;-58
2022/08/13 04:59:58;;;;;;;;;;;;;;;;;;4915530;28;19923;-58
2022/08/13 05:02:26;;;;;;;;;;;;;;;;;;4914789;28;19934;-58
2022/08/13 05:04:54;;;;;;;;;;;;;;;;;;4914127;28;21773;-58
2022/08/13 05:07:20;;;;;;;;;;;;;;;;;;4915378;28;19964;-58
2022/08/13 05:09:45;;;;;;;;;;;;;;;;;;4914019;28;19976;-58
2022/08/13 05:12:11;;;;;;;;;;;;;;;;;;4912819;28;20037;-58
2022/08/13 05:14:36;;;;;;;;;;;;;;;;;;4897428;28;19937;-58
2022/08/13 05:17:07;;;;;;;;;;;;;;;;;;4915701;28;19923;-58
2022/08/13 05:19:32;;;;;;;;;;;;;;;;;;4910724;28;20393;-58
2022/08/13 05:21:58;;;;;;;;;;;;;;;;;;4914479;28;19922;-57
2022/08/13 05:24:26;;;;;;;;;;;;;;;;;;4899831;28;19922;-58
2022/08/13 05:26:53;;;;;;;;;;;;;;;;;;4913216;28;20017;-58
2022/08/13 05:29:19;;;;;;;;;;;;;;;;;;4914705;28;19918;-59
2022/08/13 05:31:45;;;;;;;;;;;;;;;;;;4915727;28;19926;-59
2022/08/13 05:34:10;;;;;;;;;;;;;;;;;;4925963;28;19925;-59
2022/08/13 05:36:39;;;;;;;;;;;;;;;;;;4913088;28;20325;-59
2022/08/13 05:39:07;;;;;;;;;;;;;;;;;;4918320;28;20076;-59
2022/08/13 05:41:33;;;;;;;;;;;;;;;;;;4913529;28;19930;-59
2022/08/13 05:44:00;;;;;;;;;;;;;;;;;;4913569;28;19954;-59
2022/08/13 05:46:30;;;;;;;;;;;;;;;;;;4894879;28;19954;-58
2022/08/13 05:49:01;;;;;;;;;;;;;;;;;;4916636;28;19918;-59
2022/08/13 05:51:28;;;;;;;;;;;;;;;;;;4916511;28;19923;-59
2022/08/13 05:53:59;;;;;;;;;;;;;;;;;;4915917;28;20555;-59
2022/08/13 05:56:24;;;;;;;;;;;;;;;;;;4914330;28;20025;-60
2022/08/13 05:58:50;;;;;;;;;;;;;;;;;;4914738;28;19929;-59
2022/08/13 06:04:05;;;;;;;;;;;;;;;;;;4915118;28;20484;-59
2022/08/13 06:06:32;;;;;;;;;;;;;;;;;;4914754;28;19927;-59
2022/08/13 06:09:01;;;;;;;;;;;;;;;;;;4912973;28;20085;-58
2022/08/13 06:11:27;;;;;;;;;;;;;;;;;;4915669;28;19922;-58
2022/08/13 06:13:53;;;;;;;;;;;;;;;;;;4917945;28;19922;-58
2022/08/13 06:16:21;;;;;;;;;;;;;;;;;;4912303;28;19996;-58
2022/08/13 06:18:49;;;;;;;;;;;;;;;;;;4915786;28;20259;-59
2022/08/13 06:21:15;;;;;;;;;;;;;;;;;;4918188;28;20551;-59
2022/08/13 06:23:40;;;;;;;;;;;;;;;;;;4916419;28;19929;-58
2022/08/13 06:26:06;;;;;;;;;;;;;;;;;;4914400;28;20048;-58
2022/08/13 06:28:32;;;;;;;;;;;;;;;;;;4928581;28;19930;-59
2022/08/13 06:31:00;;;;;;;;;;;;;;;;;;4912654;28;19925;-58
2022/08/13 06:33:28;;;;;;;;;;;;;;;;;;4914952;28;20884;-60
2022/08/13 06:35:55;;;;;;;;;;;;;;;;;;4917823;28;19923;-59
2022/08/13 06:38:23;;;;;;;;;;;;;;;;;;4916332;28;20301;-59
2022/08/13 06:40:49;;;;;;;;;;;;;;;;;;4916630;28;20614;-59
2022/08/13 06:43:17;;;;;;;;;;;;;;;;;;4917258;28;20716;-59
2022/08/13 06:45:45;;;;;;;;;;;;;;;;;;4909554;28;19945;-58
2022/08/13 06:48:12;;;;;;;;;;;;;;;;;;4911472;28;19919;-59
2022/08/13 06:50:38;;;;;;;;;;;;;;;;;;4913981;28;19923;-59
2022/08/13 06:53:06;;;;;;;;;;;;;;;;;;4917975;28;20300;-59
2022/08/13 06:55:36;;;;;;;;;;;;;;;;;;4911027;28;20007;-59
2022/08/13 06:58:04;;;;;;;;;;;;;;;;;;4913006;28;20377;-59
2022/08/13 07:00:31;;;;;;;;;;;;;;;;;;4908093;28;19977;-57
2022/08/13 07:02:57;;;;;;;;;;;;;;;;;;4912248;28;19922;-60
2022/08/13 07:05:23;;;;;;;;;;;;;;;;;;4911941;28;20156;-58
2022/08/13 07:07:50;;;;;;;;;;;;;;;;;;4919907;28;19922;-58
2022/08/13 07:10:15;;;;;;;;;;;;;;;;;;4917776;28;20512;-58
2022/08/13 07:12:42;;;;;;;;;;;;;;;;;;4913700;28;19926;-58
2022/08/13 07:15:08;;;;;;;;;;;;;;;;;;4913868;28;19964;-59
2022/08/13 07:17:33;;;;;;;;;;;;;;;;;;4912061;28;20020;-58
2022/08/13 07:19:58;;;;;;;;;;;;;;;;;;4913017;28;20037;-58
2022/08/13 07:22:28;;;;;;;;;;;;;;;;;;4914204;28;19926;-58
2022/08/13 07:24:53;;;;;;;;;;;;;;;;;;4909967;28;20009;-58
2022/08/13 07:27:18;;;;;;;;;;;;;;;;;;4915545;28;20374;-59
2022/08/13 07:29:49;;;;;;;;;;;;;;;;;;4913720;28;20738;-59
2022/08/13 07:32:17;;;;;;;;;;;;;;;;;;4915716;28;20010;-59
2022/08/13 07:34:42;;;;;;;;;;;;;;;;;;4913047;28;19929;-58
2022/08/13 07:37:07;;;;;;;;;;;;;;;;;;4911066;28;20542;-59
2022/08/13 07:39:37;;;;;;;;;;;;;;;;;;4912798;28;19962;-58
2022/08/13 07:42:05;;;;;;;;;;;;;;;;;;4914542;28;20898;-59
2022/08/13 07:44:30;;;;;;;;;;;;;;;;;;4915206;28;19927;-59
2022/08/13 07:46:56;;;;;;;;;;;;;;;;;;4919187;28;19961;-59
2022/08/13 07:49:22;;;;;;;;;;;;;;;;;;4924796;28;19922;-59
2022/08/13 07:51:48;;;;;;;;;;;;;;;;;;4913829;28;19978;-59
2022/08/13 07:54:16;;;;;;;;;;;;;;;;;;4914627;28;20049;-58
2022/08/13 07:56:47;;;;;;;;;;;;;;;;;;4916482;28;19918;-59
2022/08/13 07:59:18;;;;;;;;;;;;;;;;;;4916648;28;19923;-58
2022/08/13 08:01:44;;;;;;;;;;;;;;;;;;4917689;28;20108;-58
2022/08/13 08:04:13;;;;;;;;;;;;;;;;;;4915416;28;19926;-58
2022/08/13 08:06:38;;;;;;;;;;;;;;;;;;4915189;28;19930;-58
2022/08/13 08:09:04;;;;;;;;;;;;;;;;;;4915555;28;19965;-58
2022/08/13 08:14:18;;;;;;;;;;;;;;;;;;4915886;28;19922;-59
2022/08/13 08:16:46;;;;;;;;;;;;;;;;;;4916696;28;20056;-59
2022/08/13 08:19:12;;;;;;;;;;;;;;;;;;4914127;28;19925;-59
2022/08/13 08:21:37;;;;;;;;;;;;;;;;;;4920276;28;19987;-59
2022/08/13 08:24:03;;;;;;;;;;;;;;;;;;4916957;28;19926;-59
2022/08/13 08:26:29;;;;;;;;;;;;;;;;;;4902799;28;19922;-58
2022/08/13 08:28:57;;;;;;;;;;;;;;;;;;4913028;28;19973;-59
2022/08/13 08:31:24;;;;;;;;;;;;;;;;;;4920559;28;19922;-60
2022/08/13 08:33:50;;;;;;;;;;;;;;;;;;4911036;28;20747;-59
2022/08/13 08:36:15;;;;;;;;;;;;;;;;;;4909676;28;20225;-59
2022/08/13 08:44:09;;;;;;;;;;;;;;;;;;4913423;28;19929;-60
2022/08/13 08:46:36;;;;;;;;;;;;;;;;;;4911594;28;20002;-59
2022/08/13 08:49:02;;;;;;;;;;;;;;;;;;4913732;28;20039;-60
2022/08/13 08:51:30;;;;;;;;;;;;;;;;;;4910226;28;19922;-59
2022/08/13 08:53:55;;;;;;;;;;;;;;;;;;4919521;28;19930;-59
2022/08/13 08:56:21;;;;;;;;;;;;;;;;;;4913518;28;19992;-59
2022/08/13 08:58:47;;;;;;;;;;;;;;;;;;4916460;28;20386;-58
2022/08/13 09:01:16;;;;;;;;;;;;;;;;;;4915439;28;20354;-58
2022/08/13 09:03:48;;;;;;;;;;;;;;;;;;4916549;28;20021;-58
2022/08/13 09:06:13;;;;;;;;;;;;;;;;;;4917229;28;21144;-59
2022/08/13 09:08:41;;;;;;;;;;;;;;;;;;4919171;28;19961;-58
2022/08/13 09:11:06;;;;;;;;;;;;;;;;;;4916549;28;20004;-58
2022/08/13 09:13:32;;;;;;;;;;;;;;;;;;4920301;28;19923;-60
2022/08/13 09:16:01;;;;;;;;;;;;;;;;;;4901043;28;19934;-59
2022/08/13 09:18:27;;;;;;;;;;;;;;;;;;4920398;28;20048;-59
2022/08/13 09:20:56;;;;;;;;;;;;;;;;;;4921052;28;19922;-59
2022/08/13 09:23:24;;;;;;;;;;;;;;;;;;4918885;28;19933;-59
2022/08/13 09:25:52;;;;;;;;;;;;;;;;;;4921236;28;19930;-59
2022/08/13 09:28:22;;;;;;;;;;;;;;;;;;4927925;28;20017;-59
2022/08/13 09:30:48;;;;;;;;;;;;;;;;;;4918688;28;19933;-59
2022/08/13 09:33:14;;;;;;;;;;;;;;;;;;4911386;28;19968;-59
2022/08/13 09:35:39;;;;;;;;;;;;;;;;;;4918605;28;20638;-59
2022/08/13 09:38:07;;;;;;;;;;;;;;;;;;4919329;28;19930;-59
2022/08/13 09:40:33;;;;;;;;;;;;;;;;;;4918849;28;19929;-59
2022/08/13 09:42:58;;;;;;;;;;;;;;;;;;4922553;28;19922;-59
2022/08/13 09:45:25;;;;;;;;;;;;;;;;;;4917662;28;19919;-59
2022/08/13 09:47:50;;;;;;;;;;;;;;;;;;4925249;28;19945;-60
2022/08/13 09:50:15;;;;;;;;;;;;;;;;;;4921961;28;20393;-59
2022/08/13 09:52:43;;;;;;;;;;;;;;;;;;4920349;28;19922;-59
2022/08/13 09:55:11;;;;;;;;;;;;;;;;;;4919920;28;19927;-60
2022/08/13 09:57:38;;;;;;;;;;;;;;;;;;4917562;28;19929;-59
2022/08/13 10:00:05;;;;;;;;;;;;;;;;;;4919084;28;19923;-59
2022/08/13 10:02:31;;;;;;;;;;;;;;;;;;4920161;28;20827;-59
2022/08/13 10:05:00;;;;;;;;;;;;;;;;;;4916618;28;19923;-59
2022/08/13 10:07:27;;;;;;;;;;;;;;;;;;4916071;28;19923;-60
2022/08/13 10:09:55;;;;;;;;;;;;;;;;;;4892663;28;20031;-58
2022/08/13 10:12:23;;;;;;;;;;;;;;;;;;4913518;28;20285;-59
2022/08/13 10:14:49;;;;;;;;;;;;;;;;;;4913452;28;19954;-59
2022/08/13 10:17:17;;;;;;;;;;;;;;;;;;4914316;28;21692;-58
2022/08/13 10:19:42;;;;;;;;;;;;;;;;;;4916010;28;19957;-59
2022/08/13 10:22:07;;;;;;;;;;;;;;;;;;4914432;28;19922;-58
2022/08/13 10:24:33;;;;;;;;;;;;;;;;;;4895048;28;20405;-59
2022/08/13 10:26:58;;;;;;;;;;;;;;;;;;4915149;28;19922;-58
2022/08/13 10:29:26;;;;;;;;;;;;;;;;;;4914638;28;19922;-58
2022/08/13 10:31:51;;;;;;;;;;;;;;;;;;4915013;28;19927;-58
2022/08/13 10:34:22;;;;;;;;;;;;;;;;;;4916451;28;19923;-59
2022/08/13 10:36:52;;;;;;;;;;;;;;;;;;4914775;28;19922;-58
2022/08/13 10:39:19;;;;;;;;;;;;;;;;;;4913823;28;19919;-59
2022/08/13 10:41:45;;;;;;;;;;;;;;;;;;5064270;22;19925;-86
2022/08/13 10:44:22;;;;;;;;;;;;;;;;;;4953326;28;19961;-87
2022/08/13 10:50:43;;;;;;;;;;;;;;;;;;4961581;28;19926;-90
2022/08/13 10:53:55;;;;;;;;;;;;;;;;;;4924416;28;19936;-88
2022/08/13 10:56:00;;;;;;;;;;;;;;;;;;4939530;29;19949;-88
2022/08/13 10:58:26;;;;;;;;;;;;;;;;;;4938466;28;19923;-91
2022/08/13 11:01:11;;;;;;;;;;;;;;;;;;4941663;28;20003;-90
2022/08/13 11:03:39;;;;;;;;;;;;;;;;;;4954289;28;20013;-87
2022/08/13 11:06:05;;;;;;;;;;;;;;;;;;4949808;28;19918;-85
2022/08/13 11:08:49;;;;;;;;;;;;;;;;;;4921579;28;20131;-92
2022/08/13 11:11:24;;;;;;;;;;;;;;;;;;4967648;28;19949;-88
2022/08/13 11:13:49;;;;;;;;;;;;;;;;;;4946943;28;19922;-91
2022/08/13 11:19:25;;;;;;;;;;;;;;;;;;4963756;28;19922;-92
2022/08/13 11:21:55;;;;;;;;;;;;;;;;;;4938763;28;19923;-88
2022/08/13 11:24:20;;;;;;;;;;;;;;;;;;4976812;28;20048;-91
2022/08/13 11:26:47;;;;;;;;;;;;;;;;;;4946245;28;19945;-88
2022/08/13 11:29:13;;;;;;;;;;;;;;;;;;4953155;28;19925;-90
2022/08/13 11:31:41;;;;;;;;;;;;;;;;;;4952581;28;19922;-90
2022/08/13 11:34:29;;;;;;;;;;;;;;;;;;4954186;28;20383;-90
2022/08/13 11:37:00;;;;;;;;;;;;;;;;;;4936657;28;19981;-90
2022/08/13 11:39:31;;;;;;;;;;;;;;;;;;4935437;28;19930;-91
2022/08/13 11:45:08;;;;;;;;;;;;;;;;;;;;;
2022/08/13 11:47:38;;;;;;;;;;;;;;;;;;4951395;28;19990;-90
2022/08/13 11:50:05;;;;;;;;;;;;;;;;;;4946509;28;20473;-91
2022/08/13 11:52:35;;;;;;;;;;;;;;;;;;4942586;28;19922;-91
2022/08/13 11:55:01;;;;;;;;;;;;;;;;;;4965520;28;19914;-88
2022/08/13 11:57:30;;;;;;;;;;;;;;;;;;4958652;28;19925;-89
2022/08/13 12:00:02;;;;;;;;;;;;;;;;;;4937801;28;19961;-91
2022/08/13 12:02:36;;;;;;;;;;;;;;;;;;4936001;28;19923;-93
2022/08/13 12:05:19;;;;;;;;;;;;;;;;;;4951969;28;19965;-91
2022/08/13 12:07:52;;;;;;;;;;;;;;;;;;4956987;28;19933;-91
2022/08/13 12:10:23;;;;;;;;;;;;;;;;;;4937346;28;19923;-90
2022/08/13 12:12:49;;;;;;;;;;;;;;;;;;4955243;28;19956;-89
2022/08/13 12:15:20;;;;;;;;;;;;;;;;;;4955691;28;19914;-90
2022/08/13 12:18:18;;;;;;;;;;;;;;;;;;4956628;28;19949;-91
2022/08/13 12:20:43;;;;;;;;;;;;;;;;;;4940376;28;20426;-88
2022/08/13 12:23:09;;;;;;;;;;;;;;;;;;4955879;28;20018;-91
2022/08/13 12:25:41;;;;;;;;;;;;;;;;;;4960329;28;20542;-90
2022/08/13 12:28:16;;;;;;;;;;;;;;;;;;4953284;28;19926;-90
2022/08/13 12:33:46;;;;;;;;;;;;;;;;;;4936904;28;20029;-92
2022/08/13 12:36:34;;;;;;;;;;;;;;;;;;4937134;28;20454;-87
2022/08/13 12:39:26;;;;;;;;;;;;;;;;;;4942106;28;19934;-90
2022/08/13 12:42:07;;;;;;;;;;;;;;;;;;4967839;28;19930;-91
2022/08/13 12:47:47;;;;;;;;;;;;;;;;;;5031848;28;19913;-92
2022/08/13 12:50:20;;;;;;;;;;;;;;;;;;5000600;28;20263;-92
2022/08/13 12:53:11;;;;;;;;;;;;;;;;;;4965669;28;19923;-91
2022/08/13 12:55:39;;;;;;;;;;;;;;;;;;4950671;28;20038;-92
2022/08/13 12:58:13;;;;;;;;;;;;;;;;;;4951730;28;20530;-91
2022/08/13 13:00:45;;;;;;;;;;;;;;;;;;4939186;28;20437;-91
2022/08/13 13:03:47;;;;;;;;;;;;;;;;;;4955797;28;19926;-92
2022/08/13 13:06:42;;;;;;;;;;;;;;;;;;4959197;28;20048;-91
2022/08/13 13:09:14;;;;;;;;;;;;;;;;;;4952248;28;19978;-91
2022/08/13 13:11:59;;;;;;;;;;;;;;;;;;4952185;28;20342;-87
2022/08/13 13:14:28;;;;;;;;;;;;;;;;;;4951621;28;19914;-89
2022/08/13 13:16:56;;;;;;;;;;;;;;;;;;4935570;28;22082;-90
2022/08/13 13:19:28;;;;;;;;;;;;;;;;;;4961497;28;19928;-89
2022/08/13 13:21:57;;;;;;;;;;;;;;;;;;4957555;28;20025;-90
2022/08/13 13:24:28;;;;;;;;;;;;;;;;;;4954373;28;19972;-92
2022/08/13 13:30:02;;;;;;;;;;;;;;;;;;5042739;28;19947;-90
2022/08/13 13:32:33;;;;;;;;;;;;;;;;;;4937379;28;19920;-90
2022/08/13 13:35:02;;;;;;;;;;;;;;;;;;4960055;28;19930;-91
2022/08/13 13:37:27;;;;;;;;;;;;;;;;;;4937468;28;19923;-91
2022/08/13 13:39:53;;;;;;;;;;;;;;;;;;4937711;28;19926;-92
2022/08/13 13:42:35;;;;;;;;;;;;;;;;;;4952552;29;20352;-90
2022/08/13 13:45:00;;;;;;;;;;;;;;;;;;4951676;28;20017;-89
2022/08/13 13:47:36;;;;;;;;;;;;;;;;;;4951645;28;19968;-91
2022/08/13 13:50:02;;;;;;;;;;;;;;;;;;4951119;28;19976;-92
2022/08/13 13:52:30;;;;;;;;;;;;;;;;;;4936955;28;19938;-92
2022/08/13 13:55:18;;;;;;;;;;;;;;;;;;4954084;28;20009;-90
2022/08/13 14:00:47;;;;;;;;;;;;;;;;;;5033110;28;19914;-91
2022/08/13 14:03:22;;;;;;;;;;;;;;;;;;4963488;28;19941;-91
2022/08/13 14:06:12;;;;;;;;;;;;;;;;;;4966334;28;20029;-86
2022/08/13 14:08:53;;;;;;;;;;;;;;;;;;4957920;28;20336;-89
2022/08/13 14:11:31;;;;;;;;;;;;;;;;;;4968021;28;19923;-87
2022/08/13 14:13:56;;;;;;;;;;;;;;;;;;4972847;28;19918;-88
2022/08/13 14:16:35;;;;;;;;;;;;;;;;;;;;;
2022/08/13 14:19:04;;;;;;;;;;;;;;;;;;4956004;28;19922;-90
2022/08/13 14:21:46;;;;;;;;;;;;;;;;;;4967794;28;19927;-89
2022/08/13 14:24:17;;;;;;;;;;;;;;;;;;4946876;28;19914;-90
2022/08/13 14:29:36;;;;;;;;;;;;;;;;;;4964238;28;19921;-88
2022/08/13 14:32:12;;;;;;;;;;;;;;;;;;4963206;28;19929;-90
2022/08/13 14:47:38;;;;;;;;;;;;;;;;;;5034940;28;19943;-89
2022/08/13 14:50:18;;;;;;;;;;;;;;;;;;4964789;28;19969;-86
2022/08/13 14:52:45;;;;;;;;;;;;;;;;;;4960491;28;19933;-90
2022/08/13 15:04:54;;;;;;;;;;;;;;;;;;5056950;28;20058;-89
2022/08/13 15:07:53;;;;;;;;;;;;;;;;;;5054633;28;19912;-89
2022/08/13 15:10:27;;;;;;;;;;;;;;;;;;5022139;28;20006;-91
2022/08/13 15:12:53;;;;;;;;;;;;;;;;;;4983699;28;19950;-89
2022/08/13 15:15:26;;;;;;;;;;;;;;;;;;4958745;28;19953;-89
2022/08/13 15:18:01;;;;;;;;;;;;;;;;;;5057973;28;20003;-93
2022/08/13 15:20:30;;;;;;;;;;;;;;;;;;5067159;28;19912;-89
2022/08/13 15:26:13;;;;;;;;;;;;;;;;;;5059677;28;19912;-91
2022/08/13 15:29:24;;;;;;;;;;;;;;;;;;5069579;28;20049;-89
2022/08/13 15:32:22;;;;;;;;;;;;;;;;;;5025652;28;19952;-89
2022/08/13 15:34:54;;;;;;;;;;;;;;;;;;5050174;28;19935;-89
2022/08/13 15:37:38;;;;;;;;;;;;;;;;;;5087391;28;19976;-89
2022/08/13 15:47:14;;;;;;;;;;;;;;;;;;5076917;28;19931;-89
2022/08/13 15:49:45;;;;;;;;;;;;;;;;;;5060627;28;20040;-89
2022/08/13 15:52:26;;;;;;;;;;;;;;;;;;5061829;28;19961;-90
2022/08/13 15:54:59;;;;;;;;;;;;;;;;;;5075073;28;19928;-90
2022/08/13 15:57:56;;;;;;;;;;;;;;;;;;5057519;28;20033;-92
2022/08/13 16:00:24;;;;;;;;;;;;;;;;;;5071546;28;19920;-89
2022/08/13 16:02:50;;;;;;;;;;;;;;;;;;5052755;28;19923;-88
2022/08/13 16:05:15;;;;;;;;;;;;;;;;;;5038341;28;20139;-90
2022/08/13 16:07:45;;;;;;;;;;;;;;;;;;5034295;28;20232;-88
2022/08/13 16:10:16;;;;;;;;;;;;;;;;;;5052396;28;19969;-89
2022/08/13 16:13:01;;;;;;;;;;;;;;;;;;5055593;28;19974;-90
2022/08/13 16:15:35;;;;;;;;;;;;;;;;;;5040938;28;20338;-89
2022/08/13 16:18:19;;;;;;;;;;;;;;;;;;5041407;28;19932;-89
2022/08/13 16:21:00;;;;;;;;;;;;;;;;;;5081838;28;19991;-88
2022/08/13 16:24:04;;;;;;;;;;;;;;;;;;5044147;28;20306;-88
2022/08/13 16:26:50;;;;;;;;;;;;;;;;;;5079885;28;20313;-90
2022/08/13 16:29:24;;;;;;;;;;;;;;;;;;5045938;28;20019;-88
2022/08/13 16:31:55;;;;;;;;;;;;;;;;;;5044562;28;19912;-91
2022/08/13 16:34:28;;;;;;;;;;;;;;;;;;5073500;28;20460;-88
2022/08/13 16:36:55;;;;;;;;;;;;;;;;;;5061490;28;19928;-92
2022/08/13 16:39:24;;;;;;;;;;;;;;;;;;5059312;28;19991;-89
2022/08/13 16:41:54;;;;;;;;;;;;;;;;;;4980468;28;19932;-89
2022/08/13 16:44:34;;;;;;;;;;;;;;;;;;;;;
2022/08/13 16:47:15;;;;;;;;;;;;;;;;;;4960980;28;19926;-87
2022/08/13 16:49:44;;;;;;;;;;;;;;;;;;4961802;28;19937;-89
2022/08/13 16:52:19;;;;;;;;;;;;;;;;;;4962460;28;19931;-88
2022/08/13 16:54:47;;;;;;;;;;;;;;;;;;4960594;28;19953;-87
2022/08/13 16:57:20;;;;;;;;;;;;;;;;;;4949541;28;20132;-88
2022/08/13 17:00:00;;;;;;;;;;;;;;;;;;4963074;28;20013;-91
2022/08/13 17:10:57;;;;;;;;;;;;;;;;;;4959399;28;19918;-92
2022/08/13 17:16:21;;;;;;;;;;;;;;;;;;4956161;28;20373;-92
2022/08/13 17:18:49;;;;;;;;;;;;;;;;;;4959646;28;19914;-92
2022/08/13 17:21:17;;;;;;;;;;;;;;;;;;4946344;28;19925;-91
2022/08/13 17:23:47;;;;;;;;;;;;;;;;;;4956829;28;20606;-91
2022/08/13 17:26:33;;;;;;;;;;;;;;;;;;4957290;28;19933;-88
2022/08/13 17:29:45;;;;;;;;;;;;;;;;;;;;;
2022/08/13 17:32:26;;;;;;;;;;;;;;;;;;5062006;28;19937;-89
2022/08/13 17:35:22;;;;;;;;;;;;;;;;;;;;;
2022/08/13 17:38:01;;;;;;;;;;;;;;;;;;4961557;28;19922;-91
2022/08/13 17:40:39;;;;;;;;;;;;;;;;;;4940823;28;19914;-91
2022/08/13 17:43:16;;;;;;;;;;;;;;;;;;5077315;28;19916;-89
2022/08/13 17:45:42;;;;;;;;;;;;;;;;;;5075230;28;20273;-90
2022/08/13 17:48:25;;;;;;;;;;;;;;;;;;;;;
2022/08/13 17:51:22;;;;;;;;;;;;;;;;;;5073750;28;20353;-90
2022/08/13 17:53:49;;;;;;;;;;;;;;;;;;5073929;28;19985;-90
2022/08/13 17:56:19;;;;;;;;;;;;;;;;;;5053876;28;19921;-91
2022/08/13 17:58:50;;;;;;;;;;;;;;;;;;5072896;28;19920;-90
2022/08/13 18:01:17;;;;;;;;;;;;;;;;;;5077113;28;19923;-90
2022/08/13 18:03:47;;;;;;;;;;;;;;;;;;5057807;28;19916;-88
2022/08/13 18:06:13;;;;;;;;;;;;;;;;;;5076880;28;19922;-89
2022/08/13 18:08:44;;;;;;;;;;;;;;;;;;5078626;28;20389;-90
2022/08/13 18:11:19;;;;;;;;;;;;;;;;;;5081096;28;19928;-88
2022/08/13 18:13:54;;;;;;;;;;;;;;;;;;5036665;28;19933;-85
2022/08/13 18:16:23;;;;;;;;;;;;;;;;;;4966808;28;20006;-88
2022/08/13 18:18:55;;;;;;;;;;;;;;;;;;4971596;28;19919;-89
2022/08/13 18:21:24;;;;;;;;;;;;;;;;;;4978700;28;19937;-86
2022/08/13 18:24:00;;;;;;;;;;;;;;;;;;4959198;28;19946;-89
2022/08/13 18:26:25;;;;;;;;;;;;;;;;;;4982314;28;19928;-88
2022/08/13 18:29:00;;;;;;;;;;;;;;;;;;4958499;28;19950;-89
2022/08/13 18:34:54;;;;;;;;;;;;;;;;;;4986892;28;19929;-89
2022/08/13 18:37:55;;;;;;;;;;;;;;;;;;5021027;28;19929;-89
2022/08/13 18:47:12;;;;;;;;;;;;;;;;;;4974807;28;19926;-91
2022/08/13 18:50:28;;;;;;;;;;;;;;;;;;;;;